Thomson Dream — 9HA2381 — position and weather

sailwx.info

Track history (hours):
 
Tides and Currents Weather Stations Pressure Air Temp Water Temp Dewpoint Dewpoint Depression Visibility Wind Speed Wind Dir Waves Ship Positions

Thomson Dream

Last reported at 2014-Sep-29 16:05 UTC. Time now 2014-Oct-01 22:20 UTC.
Position N 35°58' W 005°33'.

Length 243 m; draft 7.6 m.

Type: Ship. MMSI: 248480975.

Date/timePositionNaut miles runAvg speedWind from/ knotsBaromVisibWave heightAir tempDewpointWater temp
2014-Sep-29 16:05N 35°58' W 005°33'815.6
2014-Sep-29 15:33N 36°03' W 005°24'226 7.7
2014-Sep-28 10:14N 37°10' W 000°55'1217.0
2014-Sep-28 09:31N 37°17' W 000°43'1616.5
2014-Sep-28 08:33N 37°26' W 000°26'1616.4
2014-Sep-28 07:33N 37°36' W 000°09'13216.3
2014-Sep-27 23:27N 38°57' E 002°02'1415.9
2014-Sep-27 22:33N 39°08' E 002°14'1616.1
2014-Sep-27 21:33N 39°20' E 002°28'1515.3
2014-Sep-27 20:33N 39°33' E 002°39'1 0.6
2014-Sep-27 19:32N 39°33' E 002°38'0 0.0
2014-Sep-27 18:32N 39°33' E 002°38'0 0.0
2014-Sep-27 17:32N 39°33' E 002°38'0 0.0
2014-Sep-27 16:32N 39°33' E 002°38'0 0.0
2014-Sep-27 15:32N 39°33' E 002°38'0 0.0
2014-Sep-27 14:32N 39°33' E 002°38'0 0.0
2014-Sep-27 13:32N 39°33' E 002°38'0 0.0
2014-Sep-27 12:32N 39°33' E 002°38'0 0.0
2014-Sep-27 11:32N 39°33' E 002°38'0 0.0
2014-Sep-27 10:32N 39°33' E 002°38'0 0.0
2014-Sep-27 09:32N 39°33' E 002°38'0 0.0
2014-Sep-27 08:32N 39°33' E 002°38'0 0.0
2014-Sep-27 07:32N 39°33' E 002°38'0 0.0
2014-Sep-27 06:32N 39°33' E 002°38'0 0.0
2014-Sep-27 05:32N 39°33' E 002°38'0 0.0
2014-Sep-27 04:32N 39°33' E 002°38'0 0.3
2014-Sep-27 03:33N 39°33' E 002°38'8 8.1
2014-Sep-27 02:33N 39°26' E 002°34'1212.5
2014-Sep-27 01:33N 39°31' E 002°19'10 9.9
2014-Sep-27 00:33N 39°40' E 002°14'1110.8
2014-Sep-26 23:33N 39°51' E 002°13'1110.8
2014-Sep-26 22:33N 40°01' E 002°12'1111.2
2014-Sep-26 21:33N 40°12' E 002°13'1211.6
2014-Sep-26 20:33N 40°24' E 002°13'1211.7
2014-Sep-26 19:33N 40°36' E 002°13'1111.4
2014-Sep-26 18:33N 40°47' E 002°13'1616.3
2014-Sep-26 17:33N 41°03' E 002°11'19 1.7
2014-Sep-26 06:19N 41°22' E 002°11'13013.2
2014-Sep-25 20:30N 42°25' E 004°44'1413.0
2014-Sep-25 19:28N 42°32' E 004°60'1716.5
2014-Sep-25 18:27N 42°40' E 005°19'1617.0
2014-Sep-25 17:30N 42°47' E 005°39'1616.2
2014-Sep-25 16:32N 42°58' E 005°55'9 9.6
2014-Sep-25 15:33N 43°07' E 005°56'0 0.0
2014-Sep-25 14:10N 43°07' E 005°56'0 0.0
2014-Sep-25 12:16N 43°07' E 005°56'0 0.0
2014-Sep-25 11:31N 43°07' E 005°56'0 0.0
2014-Sep-25 10:31N 43°07' E 005°56'0 0.0
2014-Sep-25 09:31N 43°07' E 005°56'0 0.0
2014-Sep-25 08:31N 43°07' E 005°56'0 0.0
2014-Sep-25 07:31N 43°07' E 005°56'0 0.0
2014-Sep-25 06:33N 43°07' E 005°56'4 3.6
2014-Sep-25 05:33N 43°05' E 005°60'1110.8
2014-Sep-25 04:33N 42°57' E 006°10'1413.6
2014-Sep-25 03:34N 42°58' E 006°28'1211.7
2014-Sep-25 02:34N 43°04' E 006°42'1211.7
2014-Sep-25 01:33N 43°11' E 006°55'1111.5
2014-Sep-25 00:34N 43°17' E 007°08'1111.3
2014-Sep-24 23:34N 43°23' E 007°21'1211.6
2014-Sep-24 22:33N 43°30' E 007°35'4513.1
2014-Sep-24 19:10N 43°54' E 008°26'1016.4
2014-Sep-24 18:33N 43°60' E 008°38'1616.3
2014-Sep-24 17:33N 44°09' E 008°56'1313.0
2014-Sep-24 16:33N 44°15' E 009°12'4 0.3
2014-Sep-24 04:33N 44°18' E 009°17'1212.4
2014-Sep-24 03:33N 44°06' E 009°21'6 5.8
2014-Sep-24 02:33N 44°00' E 009°23'1 0.5
2014-Sep-24 01:33N 43°60' E 009°23'0 0.4
2014-Sep-24 00:33N 43°59' E 009°24'1 0.6
2014-Sep-23 23:33N 43°59' E 009°25'2 2.0
2014-Sep-23 22:33N 43°58' E 009°27'1010.5
2014-Sep-23 21:33N 43°49' E 009°34'1111.2
2014-Sep-23 20:34N 43°40' E 009°43'1110.8
2014-Sep-23 19:33N 43°31' E 009°52'1010.4
2014-Sep-23 18:33N 43°30' E 010°06'9 8.7
2014-Sep-23 17:34N 43°33' E 010°18'0 0.1
2014-Sep-23 16:31N 43°33' E 010°18'0 0.0
2014-Sep-23 15:31N 43°33' E 010°18'0 0.0
2014-Sep-23 14:31N 43°33' E 010°18'0 0.0
2014-Sep-23 13:31N 43°33' E 010°18'0 0.0
2014-Sep-23 12:31N 43°33' E 010°18'0 0.0
2014-Sep-23 11:31N 43°33' E 010°18'0 0.0
2014-Sep-23 10:31N 43°33' E 010°18'0 0.0
2014-Sep-23 09:31N 43°33' E 010°18'0 0.0
2014-Sep-23 08:31N 43°33' E 010°18'0 0.0
2014-Sep-23 07:31N 43°33' E 010°18'0 0.0
2014-Sep-23 06:31N 43°33' E 010°18'0 0.0
2014-Sep-23 05:31N 43°33' E 010°18'3 2.9
2014-Sep-23 04:33N 43°31' E 010°15'10 9.9
2014-Sep-23 03:33N 43°24' E 010°05'1010.1
2014-Sep-23 02:33N 43°19' E 009°53'1110.6
2014-Sep-23 01:33N 43°22' E 009°39'1111.2
2014-Sep-23 00:33N 43°23' E 009°24'1111.3
2014-Sep-22 23:33N 43°25' E 009°09'1111.2
2014-Sep-22 22:33N 43°28' E 008°54'1111.1
2014-Sep-22 21:33N 43°29' E 008°38'1110.9
2014-Sep-22 20:33N 43°31' E 008°24'1110.8
2014-Sep-22 19:33N 43°33' E 008°09'1110.8
2014-Sep-22 18:33N 43°35' E 007°54'1110.9
2014-Sep-22 17:33N 43°37' E 007°39'1110.8
2014-Sep-22 16:33N 43°38' E 007°25'5 5.0
2014-Sep-22 15:29N 43°42' E 007°19'0 0.0
2014-Sep-22 14:29N 43°42' E 007°19'0 0.0
2014-Sep-22 13:29N 43°42' E 007°19'0 0.0
2014-Sep-22 12:23N 43°42' E 007°19'0 0.0
2014-Sep-22 11:17N 43°42' E 007°19'0 0.0
2014-Sep-22 10:17N 43°42' E 007°19'0 0.0
2014-Sep-22 09:29N 43°42' E 007°19'0 0.0
2014-Sep-22 06:17N 43°42' E 007°19'0 0.0
2014-Sep-22 05:29N 43°42' E 007°19'6 6.3
2014-Sep-22 04:34N 43°36' E 007°15'1212.2
2014-Sep-22 03:33N 43°26' E 007°06'1110.6
2014-Sep-22 02:33N 43°18' E 006°57'1110.5
2014-Sep-22 01:33N 43°09' E 006°49'1110.6
2014-Sep-22 00:34N 43°01' E 006°40'1010.4
2014-Sep-21 23:33N 42°53' E 006°31'1010.1
2014-Sep-21 22:33N 42°45' E 006°22'10 9.9
2014-Sep-21 21:34N 42°39' E 006°12'1010.3
2014-Sep-21 20:33N 42°31' E 006°02'1110.6
2014-Sep-21 19:34N 42°24' E 005°52'1110.7
2014-Sep-21 18:33N 42°16' E 005°42'1110.8
2014-Sep-21 17:31N 42°08' E 005°31'1010.5
2014-Sep-21 16:33N 42°01' E 005°22'1110.8
2014-Sep-21 15:33N 41°53' E 005°12'1713.2
2014-Sep-21 14:16N 41°41' E 004°56'912.4
2014-Sep-21 13:33N 41°35' E 004°47'1313.3
2014-Sep-21 12:33N 41°26' E 004°34'1913.7
2014-Sep-21 11:08N 41°12' E 004°16'812.7
2014-Sep-21 10:32N 41°06' E 004°10'1411.0
2014-Sep-21 09:17N 40°56' E 003°57'911.2
2014-Sep-21 08:26N 40°49' E 003°48'4311.0
2014-Sep-21 04:32N 40°19' E 003°08'1111.0
2014-Sep-21 03:32N 40°11' E 002°58'1111.2
2014-Sep-21 02:33N 40°02' E 002°49'1111.2
2014-Sep-21 01:33N 39°55' E 002°38'1111.0
2014-Sep-21 00:33N 39°47' E 002°28'1111.0
2014-Sep-20 23:33N 39°39' E 002°18'9 9.1
2014-Sep-20 22:33N 39°30' E 002°20'1110.5
2014-Sep-20 21:33N 39°25' E 002°32'10 9.7
2014-Sep-20 20:33N 39°33' E 002°38'0 0.2
2014-Sep-20 19:32N 39°33' E 002°38'0 0.0
2014-Sep-20 18:32N 39°33' E 002°38'0 0.0
2014-Sep-20 17:32N 39°33' E 002°38'0 0.0
2014-Sep-20 16:32N 39°33' E 002°38'0 0.0
2014-Sep-20 14:32N 39°33' E 002°38'0 0.0
2014-Sep-20 13:32N 39°33' E 002°38'0 0.0
2014-Sep-20 12:26N 39°33' E 002°38'0 0.0
2014-Sep-20 11:32N 39°33' E 002°38'0 0.0
2014-Sep-20 10:32N 39°33' E 002°38'0 0.0
2014-Sep-20 09:32N 39°33' E 002°38'0 0.0
2014-Sep-20 07:32N 39°33' E 002°38'0 0.0
2014-Sep-20 06:32N 39°33' E 002°38'0 0.0
2014-Sep-20 05:32N 39°33' E 002°38'0 0.0
2014-Sep-20 04:32N 39°33' E 002°38'0 0.2
2014-Sep-20 03:33N 39°33' E 002°38'9 9.3
2014-Sep-20 02:33N 39°25' E 002°32'1212.3
2014-Sep-20 01:33N 39°31' E 002°18'10 9.6
2014-Sep-20 00:33N 39°41' E 002°16'1414.1
2014-Sep-19 23:33N 39°54' E 002°22'1515.4
2014-Sep-19 22:33N 40°09' E 002°27'1615.6
2014-Sep-19 21:33N 40°24' E 002°33'1615.6
2014-Sep-19 20:33N 40°39' E 002°39'1515.5
2014-Sep-19 19:33N 40°54' E 002°45'2417.4
2014-Sep-19 18:12N 41°16' E 002°54'913.7
2014-Sep-19 17:32N 41°25' E 002°57'1716.3
2014-Sep-19 16:27N 41°42' E 003°04'  
Track history (hours):
 
Tides and Currents Weather Stations Pressure Air Temp Water Temp Dewpoint Dewpoint Depression Visibility Wind Speed Wind Dir Waves Ship Positions

Thomson Dream

Last reported at 2014-Sep-29 16:05 UTC. Time now 2014-Oct-01 22:20 UTC.
Position N 35°58' W 005°33'.

Length 243 m; draft 7.6 m.

Type: Ship. MMSI: 248480975.

Date/timePositionNaut miles runAvg speedWind from/ knotsBaromVisibWave heightAir tempDewpointWater temp
2014-Sep-29 16:05N 35°58' W 005°33'815.6
2014-Sep-29 15:33N 36°03' W 005°24'226 7.7
2014-Sep-28 10:14N 37°10' W 000°55'1217.0
2014-Sep-28 09:31N 37°17' W 000°43'1616.5
2014-Sep-28 08:33N 37°26' W 000°26'1616.4
2014-Sep-28 07:33N 37°36' W 000°09'13216.3
2014-Sep-27 23:27N 38°57' E 002°02'1415.9
2014-Sep-27 22:33N 39°08' E 002°14'1616.1
2014-Sep-27 21:33N 39°20' E 002°28'1515.3
2014-Sep-27 20:33N 39°33' E 002°39'1 0.6
2014-Sep-27 19:32N 39°33' E 002°38'0 0.0
2014-Sep-27 18:32N 39°33' E 002°38'0 0.0
2014-Sep-27 17:32N 39°33' E 002°38'0 0.0
2014-Sep-27 16:32N 39°33' E 002°38'0 0.0
2014-Sep-27 15:32N 39°33' E 002°38'0 0.0
2014-Sep-27 14:32N 39°33' E 002°38'0 0.0
2014-Sep-27 13:32N 39°33' E 002°38'0 0.0
2014-Sep-27 12:32N 39°33' E 002°38'0 0.0
2014-Sep-27 11:32N 39°33' E 002°38'0 0.0
2014-Sep-27 10:32N 39°33' E 002°38'0 0.0
2014-Sep-27 09:32N 39°33' E 002°38'0 0.0
2014-Sep-27 08:32N 39°33' E 002°38'0 0.0
2014-Sep-27 07:32N 39°33' E 002°38'0 0.0
2014-Sep-27 06:32N 39°33' E 002°38'0 0.0
2014-Sep-27 05:32N 39°33' E 002°38'0 0.0
2014-Sep-27 04:32N 39°33' E 002°38'0 0.3
2014-Sep-27 03:33N 39°33' E 002°38'8 8.1
2014-Sep-27 02:33N 39°26' E 002°34'1212.5
2014-Sep-27 01:33N 39°31' E 002°19'10 9.9
2014-Sep-27 00:33N 39°40' E 002°14'1110.8
2014-Sep-26 23:33N 39°51' E 002°13'1110.8
2014-Sep-26 22:33N 40°01' E 002°12'1111.2
2014-Sep-26 21:33N 40°12' E 002°13'1211.6
2014-Sep-26 20:33N 40°24' E 002°13'1211.7
2014-Sep-26 19:33N 40°36' E 002°13'1111.4
2014-Sep-26 18:33N 40°47' E 002°13'1616.3
2014-Sep-26 17:33N 41°03' E 002°11'19 1.7
2014-Sep-26 06:19N 41°22' E 002°11'13013.2
2014-Sep-25 20:30N 42°25' E 004°44'1413.0
2014-Sep-25 19:28N 42°32' E 004°60'1716.5
2014-Sep-25 18:27N 42°40' E 005°19'1617.0
2014-Sep-25 17:30N 42°47' E 005°39'1616.2
2014-Sep-25 16:32N 42°58' E 005°55'9 9.6
2014-Sep-25 15:33N 43°07' E 005°56'0 0.0
2014-Sep-25 14:10N 43°07' E 005°56'0 0.0
2014-Sep-25 12:16N 43°07' E 005°56'0 0.0
2014-Sep-25 11:31N 43°07' E 005°56'0 0.0
2014-Sep-25 10:31N 43°07' E 005°56'0 0.0
2014-Sep-25 09:31N 43°07' E 005°56'0 0.0
2014-Sep-25 08:31N 43°07' E 005°56'0 0.0
2014-Sep-25 07:31N 43°07' E 005°56'0 0.0
2014-Sep-25 06:33N 43°07' E 005°56'4 3.6
2014-Sep-25 05:33N 43°05' E 005°60'1110.8
2014-Sep-25 04:33N 42°57' E 006°10'1413.6
2014-Sep-25 03:34N 42°58' E 006°28'1211.7
2014-Sep-25 02:34N 43°04' E 006°42'1211.7
2014-Sep-25 01:33N 43°11' E 006°55'1111.5
2014-Sep-25 00:34N 43°17' E 007°08'1111.3
2014-Sep-24 23:34N 43°23' E 007°21'1211.6
2014-Sep-24 22:33N 43°30' E 007°35'4513.1
2014-Sep-24 19:10N 43°54' E 008°26'1016.4
2014-Sep-24 18:33N 43°60' E 008°38'1616.3
2014-Sep-24 17:33N 44°09' E 008°56'1313.0
2014-Sep-24 16:33N 44°15' E 009°12'4 0.3
2014-Sep-24 04:33N 44°18' E 009°17'1212.4
2014-Sep-24 03:33N 44°06' E 009°21'6 5.8
2014-Sep-24 02:33N 44°00' E 009°23'1 0.5
2014-Sep-24 01:33N 43°60' E 009°23'0 0.4
2014-Sep-24 00:33N 43°59' E 009°24'1 0.6
2014-Sep-23 23:33N 43°59' E 009°25'2 2.0
2014-Sep-23 22:33N 43°58' E 009°27'1010.5
2014-Sep-23 21:33N 43°49' E 009°34'1111.2
2014-Sep-23 20:34N 43°40' E 009°43'1110.8
2014-Sep-23 19:33N 43°31' E 009°52'1010.4
2014-Sep-23 18:33N 43°30' E 010°06'9 8.7
2014-Sep-23 17:34N 43°33' E 010°18'0 0.1
2014-Sep-23 16:31N 43°33' E 010°18'0 0.0
2014-Sep-23 15:31N 43°33' E 010°18'0 0.0
2014-Sep-23 14:31N 43°33' E 010°18'0 0.0
2014-Sep-23 13:31N 43°33' E 010°18'0 0.0
2014-Sep-23 12:31N 43°33' E 010°18'0 0.0
2014-Sep-23 11:31N 43°33' E 010°18'0 0.0
2014-Sep-23 10:31N 43°33' E 010°18'0 0.0
2014-Sep-23 09:31N 43°33' E 010°18'0 0.0
2014-Sep-23 08:31N 43°33' E 010°18'0 0.0
2014-Sep-23 07:31N 43°33' E 010°18'0 0.0
2014-Sep-23 06:31N 43°33' E 010°18'0 0.0
2014-Sep-23 05:31N 43°33' E 010°18'3 2.9
2014-Sep-23 04:33N 43°31' E 010°15'10 9.9
2014-Sep-23 03:33N 43°24' E 010°05'1010.1
2014-Sep-23 02:33N 43°19' E 009°53'1110.6
2014-Sep-23 01:33N 43°22' E 009°39'1111.2
2014-Sep-23 00:33N 43°23' E 009°24'1111.3
2014-Sep-22 23:33N 43°25' E 009°09'1111.2
2014-Sep-22 22:33N 43°28' E 008°54'1111.1
2014-Sep-22 21:33N 43°29' E 008°38'1110.9
2014-Sep-22 20:33N 43°31' E 008°24'1110.8
2014-Sep-22 19:33N 43°33' E 008°09'1110.8
2014-Sep-22 18:33N 43°35' E 007°54'1110.9
2014-Sep-22 17:33N 43°37' E 007°39'1110.8
2014-Sep-22 16:33N 43°38' E 007°25'5 5.0
2014-Sep-22 15:29N 43°42' E 007°19'0 0.0
2014-Sep-22 14:29N 43°42' E 007°19'0 0.0
2014-Sep-22 13:29N 43°42' E 007°19'0 0.0
2014-Sep-22 12:23N 43°42' E 007°19'0 0.0
2014-Sep-22 11:17N 43°42' E 007°19'0 0.0
2014-Sep-22 10:17N 43°42' E 007°19'0 0.0
2014-Sep-22 09:29N 43°42' E 007°19'0 0.0
2014-Sep-22 06:17N 43°42' E 007°19'0 0.0
2014-Sep-22 05:29N 43°42' E 007°19'6 6.3
2014-Sep-22 04:34N 43°36' E 007°15'1212.2
2014-Sep-22 03:33N 43°26' E 007°06'1110.6
2014-Sep-22 02:33N 43°18' E 006°57'1110.5
2014-Sep-22 01:33N 43°09' E 006°49'1110.6
2014-Sep-22 00:34N 43°01' E 006°40'1010.4
2014-Sep-21 23:33N 42°53' E 006°31'1010.1
2014-Sep-21 22:33N 42°45' E 006°22'10 9.9
2014-Sep-21 21:34N 42°39' E 006°12'1010.3
2014-Sep-21 20:33N 42°31' E 006°02'1110.6
2014-Sep-21 19:34N 42°24' E 005°52'1110.7
2014-Sep-21 18:33N 42°16' E 005°42'1110.8
2014-Sep-21 17:31N 42°08' E 005°31'1010.5
2014-Sep-21 16:33N 42°01' E 005°22'1110.8
2014-Sep-21 15:33N 41°53' E 005°12'1713.2
2014-Sep-21 14:16N 41°41' E 004°56'912.4
2014-Sep-21 13:33N 41°35' E 004°47'1313.3
2014-Sep-21 12:33N 41°26' E 004°34'1913.7
2014-Sep-21 11:08N 41°12' E 004°16'812.7
2014-Sep-21 10:32N 41°06' E 004°10'1411.0
2014-Sep-21 09:17N 40°56' E 003°57'911.2
2014-Sep-21 08:26N 40°49' E 003°48'4311.0
2014-Sep-21 04:32N 40°19' E 003°08'1111.0
2014-Sep-21 03:32N 40°11' E 002°58'1111.2
2014-Sep-21 02:33N 40°02' E 002°49'1111.2
2014-Sep-21 01:33N 39°55' E 002°38'1111.0
2014-Sep-21 00:33N 39°47' E 002°28'1111.0
2014-Sep-20 23:33N 39°39' E 002°18'9 9.1
2014-Sep-20 22:33N 39°30' E 002°20'1110.5
2014-Sep-20 21:33N 39°25' E 002°32'10 9.7
2014-Sep-20 20:33N 39°33' E 002°38'0 0.2
2014-Sep-20 19:32N 39°33' E 002°38'0 0.0
2014-Sep-20 18:32N 39°33' E 002°38'0 0.0
2014-Sep-20 17:32N 39°33' E 002°38'0 0.0
2014-Sep-20 16:32N 39°33' E 002°38'0 0.0
2014-Sep-20 14:32N 39°33' E 002°38'0 0.0
2014-Sep-20 13:32N 39°33' E 002°38'0 0.0
2014-Sep-20 12:26N 39°33' E 002°38'0 0.0
2014-Sep-20 11:32N 39°33' E 002°38'0 0.0
2014-Sep-20 10:32N 39°33' E 002°38'0 0.0
2014-Sep-20 09:32N 39°33' E 002°38'0 0.0
2014-Sep-20 07:32N 39°33' E 002°38'0 0.0
2014-Sep-20 06:32N 39°33' E 002°38'0 0.0
2014-Sep-20 05:32N 39°33' E 002°38'0 0.0
2014-Sep-20 04:32N 39°33' E 002°38'0 0.2
2014-Sep-20 03:33N 39°33' E 002°38'9 9.3
2014-Sep-20 02:33N 39°25' E 002°32'1212.3
2014-Sep-20 01:33N 39°31' E 002°18'10 9.6
2014-Sep-20 00:33N 39°41' E 002°16'1414.1
2014-Sep-19 23:33N 39°54' E 002°22'1515.4
2014-Sep-19 22:33N 40°09' E 002°27'1615.6
2014-Sep-19 21:33N 40°24' E 002°33'1615.6
2014-Sep-19 20:33N 40°39' E 002°39'1515.5
2014-Sep-19 19:33N 40°54' E 002°45'2417.4
2014-Sep-19 18:12N 41°16' E 002°54'913.7
2014-Sep-19 17:32N 41°25' E 002°57'1716.3
2014-Sep-19 16:27N 41°42' E 003°04'  

Dump ship's entire track history